Terminal Aerodrome Forecast
Issued by NWS

Home | Current Version | Previous Version | Graphics & Text | Print | Product List | Glossary On
Versions: 1 2 3 4 5 6 7 8 9 10 11 12 13 14 15 16 17 18
000
FTUS43 KGRB 131100
TAFAUW
TAF
KAUW 131136Z 1312/1412 02004KT 3SM BR OVC003
      TEMPO 1312/1316 2SM BR
     FM131600 35008KT 4SM BR OVC005
     FM132100 35015KT 4SM -RA BR OVC008
     FM140300 35015G21KT 6SM -RASN OVC007
     FM140500 34020G26KT 4SM -SN BR OVC007=

USA.gov is the U.S. government's official web portal to all federal, state and local government web resources and services.